Terminal Aerodrome Forecast
Issued by NWS Portland, OR

Home | Current Version | Previous Version | Text Only | Print | Product List | Glossary On
Versions: 1 2 3 4 5 6 7 8 9 10 11 12 13 14 15 16 17 18 19 20 21 22 23 24 25 26 27 28 29 30 31 32 33 34
000
FTUS46 KPQR 251136
TAFSLE
TAF
KSLE 251136Z 2512/2612 00000KT 1/4SM FG VV002
     FM251900 00000KT 2SM BR OVC002
     FM252300 VRB02KT P6SM BKN004
     FM260200 00000KT 2SM BR OVC004
     FM260700 00000KT 1/4SM FG VV002=

USA.gov is the U.S. government's official web portal to all federal, state and local government web resources and services.